Terminal Aerodrome Forecast
Issued by NWS Duluth, MN

Home | Current Version | Previous Version | Text Only | Print | Product List | Glossary On
Versions: 1 2 3 4 5 6 7 8 9 10 11 12 13 14 15 16 17 18 19 20 21 22 23 24 25 26
000
FTUS43 KDLH 232329
TAFDLH
TAF
KDLH 232329Z 2400/2424 33004KT P6SM VCTS SCT060CB BKN100
     FM240300 08005KT P6SM -SHRA SCT030 OVC040
     FM240700 09005KT 4SM BR SCT004 BKN030 WS020/20030KT
     FM241400 15007KT P6SM SCT250=

USA.gov is the U.S. government's official web portal to all federal, state and local government web resources and services.